createdAt,value
2023-04-24T00:00:31.221Z,23.50
2023-04-24T00:03:03.700Z,29.83
2023-04-24T00:05:33.828Z,29.48
2023-04-24T00:08:04.084Z,28.67
2023-04-24T00:10:32.401Z,28.15
2023-04-24T00:13:00.817Z,27.55
2023-04-24T00:15:29.011Z,25.15
2023-04-24T00:17:57.239Z,25.00
2023-04-24T00:20:26.669Z,28.88
2023-04-24T00:22:54.958Z,29.58
2023-04-24T00:25:23.064Z,33.80
2023-04-24T00:27:51.377Z,28.35
2023-04-24T00:30:19.672Z,29.65
2023-04-24T00:32:48.190Z,30.70
2023-04-24T00:35:16.629Z,23.98
2023-04-24T00:37:46.464Z,28.10
2023-04-24T00:40:14.742Z,31.15
2023-04-24T00:42:45.156Z,34.33
2023-04-24T00:45:14.382Z,29.70
2023-04-24T00:47:44.166Z,29.63
2023-04-24T00:50:14.538Z,28.10
2023-04-24T00:52:44.182Z,28.13
2023-04-24T00:55:13.716Z,28.50
2023-04-24T00:57:43.136Z,28.23
2023-04-24T01:00:12.893Z,28.33
2023-04-24T01:02:45.322Z,24.45
2023-04-24T01:05:14.657Z,24.50
2023-04-24T01:07:46.552Z,20.70
2023-04-24T01:10:18.152Z,22.38
2023-04-24T01:12:47.549Z,23.50
2023-04-24T01:15:16.474Z,26.80
2023-04-24T01:17:44.679Z,23.02
2023-04-24T01:20:12.913Z,21.85
2023-04-24T01:22:44.517Z,20.02
2023-04-24T01:25:12.712Z,21.15
2023-04-24T01:27:40.819Z,22.58
2023-04-24T01:30:10.652Z,27.25
2023-04-24T01:32:39.652Z,23.92
2023-04-24T01:35:09.495Z,18.35
2023-04-24T01:37:38.402Z,17.38
2023-04-24T01:40:09.871Z,20.63
2023-04-24T01:42:38.307Z,14.88
2023-04-24T01:45:08.073Z,14.30
2023-04-24T01:47:36.673Z,20.02
2023-04-24T01:50:05.412Z,18.88
2023-04-24T01:52:34.329Z,15.38
2023-04-24T01:55:02.995Z,18.73
2023-04-24T01:57:33.058Z,16.98
2023-04-24T02:00:01.376Z,13.35
2023-04-24T02:02:31.164Z,12.15
2023-04-24T02:04:59.982Z,13.25
2023-04-24T02:07:28.205Z,13.98
2023-04-24T02:09:56.600Z,15.40
2023-04-24T02:12:24.841Z,14.38
2023-04-24T02:14:54.797Z,13.65
2023-04-24T02:17:23.595Z,13.18
2023-04-24T02:19:52.002Z,15.30
2023-04-24T02:22:20.169Z,11.88
2023-04-24T02:24:48.315Z,11.40
2023-04-24T02:27:17.765Z,11.73
2023-04-24T02:29:46.120Z,14.60
2023-04-24T02:32:16.881Z,14.60
2023-04-24T02:34:47.397Z,13.60
2023-04-24T02:37:15.783Z,13.20
2023-04-24T02:39:45.393Z,11.88
2023-04-24T02:42:13.844Z,11.88
2023-04-24T02:44:42.039Z,11.50
2023-04-24T02:47:10.070Z,11.02
2023-04-24T02:49:43.276Z,10.00
2023-04-24T02:52:12.584Z,9.88
2023-04-24T02:54:40.817Z,10.65
2023-04-24T02:57:08.851Z,12.15
2023-04-24T02:59:40.453Z,10.45
2023-04-24T03:02:08.917Z,9.52
2023-04-24T03:04:37.620Z,11.63
2023-04-24T03:07:07.775Z,10.57
2023-04-24T03:09:36.132Z,8.85
2023-04-24T03:12:04.422Z,8.05
2023-04-24T03:14:32.800Z,7.07
2023-04-24T03:17:01.524Z,5.63
2023-04-24T03:19:29.906Z,5.32
2023-04-24T03:22:04.922Z,5.93
2023-04-24T03:24:34.907Z,5.85
2023-04-24T03:27:03.433Z,6.97
2023-04-24T03:29:52.700Z,4.40
2023-04-24T03:32:21.400Z,7.63
2023-04-24T03:34:50.901Z,3.22
2023-04-24T03:37:19.058Z,4.95
2023-04-24T03:39:57.353Z,3.08
2023-04-24T03:42:27.015Z,3.75
2023-04-24T03:44:57.766Z,3.38
2023-04-24T03:47:31.249Z,5.72
2023-04-24T03:50:03.096Z,2.97
2023-04-24T03:52:32.642Z,3.33
2023-04-24T03:55:02.357Z,4.25
2023-04-24T03:57:32.694Z,5.40
2023-04-24T04:00:13.365Z,2.60
2023-04-24T04:02:47.904Z,2.40
2023-04-24T04:05:16.428Z,3.78
2023-04-24T04:07:44.665Z,2.08
2023-04-24T04:10:14.571Z,2.22
2023-04-24T04:12:42.809Z,2.28
2023-04-24T04:15:11.598Z,2.63
2023-04-24T04:17:40.205Z,2.20
2023-04-24T04:20:11.793Z,2.90
2023-04-24T04:22:44.158Z,2.85
2023-04-24T04:25:17.004Z,3.72
2023-04-24T04:27:45.214Z,4.03
2023-04-24T04:30:15.511Z,2.40
2023-04-24T04:32:51.319Z,2.08
2023-04-24T04:35:22.959Z,5.78
2023-04-24T04:37:52.356Z,3.03
2023-04-24T04:40:41.161Z,2.53
2023-04-24T04:43:09.538Z,1.95
2023-04-24T04:45:45.876Z,2.47
2023-04-24T04:48:32.537Z,1.42
2023-04-24T04:51:02.659Z,3.63
2023-04-24T04:53:31.159Z,2.38
2023-04-24T04:56:00.923Z,3.60
2023-04-24T04:58:41.874Z,2.15
2023-04-24T05:01:13.704Z,3.20
2023-04-24T05:03:44.503Z,1.45
2023-04-24T05:06:16.185Z,1.30
2023-04-24T05:08:45.614Z,2.63
2023-04-24T05:11:26.018Z,3.35
2023-04-24T05:13:55.143Z,2.67
2023-04-24T05:16:33.782Z,1.77
2023-04-24T05:19:02.423Z,2.58
2023-04-24T05:21:35.933Z,3.07
2023-04-24T05:24:04.361Z,3.22
2023-04-24T05:29:44.808Z,4.20
2023-04-24T05:32:13.196Z,2.97
2023-04-24T05:37:48.420Z,4.65
2023-04-24T05:40:17.259Z,3.58
2023-04-24T05:42:46.683Z,5.40
2023-04-24T05:45:17.804Z,3.05
2023-04-24T05:47:46.302Z,3.95
2023-04-24T05:50:14.763Z,2.22
2023-04-24T05:52:43.000Z,2.20
2023-04-24T05:55:24.223Z,5.43
2023-04-24T05:57:54.454Z,3.13
2023-04-24T06:00:23.061Z,3.53
2023-04-24T06:06:01.367Z,3.00
2023-04-24T06:08:29.440Z,2.38
2023-04-24T06:10:58.187Z,3.53
2023-04-24T06:13:28.380Z,3.45
2023-04-24T06:16:16.575Z,3.55
2023-04-24T06:18:50.204Z,4.38
2023-04-24T06:21:18.851Z,6.32
2023-04-24T06:23:47.771Z,4.10
2023-04-24T06:26:16.874Z,4.30
2023-04-24T06:28:46.260Z,4.63
2023-04-24T06:31:14.410Z,4.65
2023-04-24T06:33:42.679Z,5.55
2023-04-24T06:36:11.578Z,4.53
2023-04-24T06:38:40.442Z,6.38
2023-04-24T06:41:08.648Z,6.53
2023-04-24T06:43:36.723Z,4.53
2023-04-24T06:46:06.409Z,8.52
2023-04-24T06:48:34.795Z,5.40
2023-04-24T06:51:02.908Z,5.88
2023-04-24T06:53:31.135Z,6.75
2023-04-24T06:55:59.341Z,8.77
2023-04-24T06:58:27.552Z,6.68
2023-04-24T07:00:55.702Z,7.75
2023-04-24T07:03:25.695Z,7.65
2023-04-24T07:05:54.545Z,8.30
2023-04-24T07:08:23.002Z,7.15
2023-04-24T07:10:51.858Z,7.60
2023-04-24T07:13:21.461Z,6.70
2023-04-24T07:15:51.960Z,7.68
2023-04-24T07:18:20.212Z,6.82
2023-04-24T07:20:51.224Z,7.10
2023-04-24T07:23:19.661Z,7.95
2023-04-24T07:25:47.980Z,6.80
2023-04-24T07:28:17.670Z,8.07
2023-04-24T07:30:46.037Z,7.07
2023-04-24T07:33:14.513Z,7.88
2023-04-24T07:35:42.590Z,8.77
2023-04-24T07:38:12.387Z,6.75
2023-04-24T07:40:40.718Z,6.57
2023-04-24T07:43:08.724Z,6.88
2023-04-24T07:45:38.510Z,9.05
2023-04-24T07:48:07.186Z,7.03
2023-04-24T07:50:35.746Z,7.63
2023-04-24T07:53:03.958Z,7.60
2023-04-24T07:55:33.662Z,7.45
2023-04-24T07:58:01.657Z,5.88
2023-04-24T08:00:29.697Z,7.32
2023-04-24T08:02:58.130Z,7.93
2023-04-24T08:05:28.432Z,7.53
2023-04-24T08:07:57.231Z,6.78
2023-04-24T08:10:25.633Z,8.23
2023-04-24T08:12:57.361Z,11.50
2023-04-24T08:15:25.820Z,9.38
2023-04-24T08:17:58.926Z,9.48
2023-04-24T08:20:28.579Z,6.63
2023-04-24T08:22:57.568Z,9.20
2023-04-24T08:25:25.950Z,8.32
2023-04-24T08:27:55.537Z,7.82
2023-04-24T08:30:24.243Z,10.63
2023-04-24T08:32:52.368Z,7.20
2023-04-24T08:35:20.759Z,7.53
2023-04-24T08:37:48.819Z,6.85
2023-04-24T08:40:18.634Z,8.77
2023-04-24T08:42:47.436Z,8.02
2023-04-24T08:45:17.334Z,9.38
2023-04-24T08:47:46.296Z,7.72
2023-04-24T08:50:14.541Z,8.43
2023-04-24T08:52:44.475Z,11.93
2023-04-24T08:55:12.636Z,8.73
2023-04-24T08:57:41.655Z,11.52
2023-04-24T09:00:12.230Z,10.52
2023-04-24T09:02:45.641Z,9.30
2023-04-24T09:05:16.062Z,10.88
2023-04-24T09:07:47.340Z,11.30
2023-04-24T09:10:16.032Z,13.10
2023-04-24T09:12:46.047Z,11.48
2023-04-24T09:15:14.324Z,9.40
2023-04-24T09:17:44.425Z,11.50
2023-04-24T09:20:14.863Z,13.35
2023-04-24T09:22:44.611Z,13.40
2023-04-24T09:25:13.545Z,14.65
2023-04-24T09:27:45.130Z,14.77
2023-04-24T09:30:14.226Z,14.95
2023-04-24T09:32:44.599Z,10.82
2023-04-24T09:35:14.156Z,14.00
2023-04-24T09:37:44.624Z,12.32
2023-04-24T09:40:18.644Z,10.45
2023-04-24T09:42:48.105Z,11.38
2023-04-24T09:45:16.419Z,11.40
2023-04-24T09:47:46.082Z,10.68
2023-04-24T09:50:16.889Z,12.75
2023-04-24T09:52:47.035Z,10.98
2023-04-24T09:55:19.597Z,9.75
2023-04-24T09:57:55.630Z,13.70
2023-04-24T10:00:28.659Z,8.93
2023-04-24T10:02:59.473Z,9.20
2023-04-24T10:05:30.168Z,9.52
2023-04-24T10:08:04.346Z,11.80
2023-04-24T10:13:01.501Z,10.10
2023-04-24T10:15:29.690Z,10.65
2023-04-24T10:18:01.189Z,9.48
2023-04-24T10:20:31.598Z,8.00
2023-04-24T10:23:01.011Z,10.13
2023-04-24T10:25:30.705Z,6.95
2023-04-24T10:28:00.780Z,8.27
2023-04-24T10:30:30.201Z,8.35
2023-04-24T10:32:59.626Z,7.25
2023-04-24T10:35:27.959Z,8.32
2023-04-24T10:38:01.880Z,7.93
2023-04-24T10:40:33.813Z,7.68
2023-04-24T10:43:07.033Z,7.10
2023-04-24T10:45:35.739Z,7.95
2023-04-24T10:48:11.850Z,7.28
2023-04-24T10:50:48.016Z,6.55
2023-04-24T10:53:18.945Z,6.47
2023-04-24T10:55:49.051Z,7.38
2023-04-24T10:58:17.797Z,6.45
2023-04-24T11:00:46.824Z,8.48
2023-04-24T11:03:30.424Z,6.03
2023-04-24T11:06:00.958Z,5.93
2023-04-24T11:08:33.903Z,6.55
2023-04-24T11:11:05.340Z,6.13
2023-04-24T11:14:06.929Z,5.07
2023-04-24T11:16:36.885Z,5.10
2023-04-24T11:19:08.487Z,6.32
2023-04-24T11:21:44.489Z,5.55
2023-04-24T11:24:33.136Z,6.03
2023-04-24T11:27:08.129Z,5.88
2023-04-24T11:29:45.027Z,5.15
2023-04-24T11:32:20.898Z,5.90
2023-04-24T11:34:52.515Z,4.55
2023-04-24T11:37:20.757Z,6.13
2023-04-24T11:39:48.828Z,4.05
2023-04-24T11:42:17.918Z,3.67
2023-04-24T11:44:48.461Z,4.15
2023-04-24T11:47:16.490Z,4.63
2023-04-24T11:49:47.398Z,3.83
2023-04-24T11:52:19.517Z,3.92
2023-04-24T11:54:52.282Z,4.63
2023-04-24T11:57:23.650Z,5.00
2023-04-24T11:59:51.984Z,8.05
2023-04-24T12:02:25.278Z,4.68
2023-04-24T12:04:54.453Z,4.60
2023-04-24T12:07:25.558Z,4.28
2023-04-24T12:09:59.412Z,4.47
2023-04-24T12:12:28.937Z,4.93
2023-04-24T12:14:58.823Z,5.03
2023-04-24T12:17:29.366Z,6.53
2023-04-24T12:20:02.051Z,6.63
2023-04-24T12:22:46.727Z,4.82
2023-04-24T12:27:43.270Z,5.18
2023-04-24T12:30:15.307Z,5.25
2023-04-24T12:32:45.101Z,5.07
2023-04-24T12:35:13.491Z,5.57
2023-04-24T12:37:47.410Z,5.03
2023-04-24T12:40:16.697Z,5.20
2023-04-24T12:42:46.155Z,6.97
2023-04-24T12:45:15.220Z,4.07
2023-04-24T12:47:44.857Z,4.80
2023-04-24T12:50:14.176Z,6.78
2023-04-24T12:52:44.387Z,7.03
2023-04-24T12:55:13.105Z,9.10
2023-04-24T12:57:42.237Z,8.73
2023-04-24T13:00:11.279Z,8.75
2023-04-24T13:02:39.709Z,8.55
2023-04-24T13:05:08.349Z,9.98
2023-04-24T13:07:36.521Z,10.70
2023-04-24T13:10:06.856Z,10.23
2023-04-24T13:12:35.080Z,8.57
2023-04-24T13:15:03.259Z,7.55
2023-04-24T13:17:31.534Z,7.40
2023-04-24T13:20:01.515Z,11.77
2023-04-24T13:22:29.739Z,17.27
2023-04-24T13:24:58.307Z,20.55
2023-04-24T13:27:27.723Z,19.35
2023-04-24T13:29:56.129Z,23.67
2023-04-24T13:32:24.303Z,23.48
2023-04-24T13:34:52.364Z,19.33
2023-04-24T13:37:20.869Z,20.90
2023-04-24T13:39:48.850Z,22.17
2023-04-24T13:42:16.871Z,18.67
2023-04-24T13:44:46.595Z,22.30
2023-04-24T13:47:14.690Z,22.35
2023-04-24T13:49:42.715Z,21.98
2023-04-24T13:52:11.743Z,20.90
2023-04-24T13:54:39.832Z,21.17
2023-04-24T13:57:08.198Z,28.00
2023-04-24T13:59:36.538Z,25.33
2023-04-24T14:02:06.012Z,33.88
2023-04-24T14:04:34.299Z,23.10
2023-04-24T14:07:02.709Z,31.23
2023-04-24T14:09:30.721Z,33.40
2023-04-24T14:11:58.782Z,29.88
2023-04-24T14:14:27.638Z,30.33
2023-04-24T14:16:55.650Z,29.17
2023-04-24T14:19:25.021Z,38.13
2023-04-24T14:21:53.500Z,28.20
2023-04-24T14:24:21.553Z,26.83
2023-04-24T14:26:49.618Z,32.40
2023-04-24T14:29:18.520Z,27.60
2023-04-24T14:31:46.594Z,28.00
2023-04-24T14:34:16.080Z,33.17
2023-04-24T14:36:46.111Z,22.33
2023-04-24T14:39:14.176Z,31.58
2023-04-24T14:41:42.190Z,29.15
2023-04-24T14:44:29.049Z,27.85
2023-04-24T14:46:57.360Z,39.40
2023-04-24T14:49:25.724Z,42.50
2023-04-24T14:51:55.241Z,31.38
2023-04-24T14:54:25.129Z,42.10
2023-04-24T14:56:53.325Z,41.22
2023-04-24T14:59:21.904Z,35.28
2023-04-24T15:01:54.813Z,36.60
2023-04-24T15:04:27.626Z,31.70
2023-04-24T15:06:57.505Z,37.53
2023-04-24T15:09:28.309Z,35.38
2023-04-24T15:11:57.511Z,44.50
2023-04-24T15:14:25.662Z,36.58
2023-04-24T15:16:53.884Z,41.63
2023-04-24T15:19:22.064Z,46.58
2023-04-24T15:21:50.142Z,44.20
2023-04-24T15:24:19.706Z,41.25
2023-04-24T15:26:47.772Z,48.67
2023-04-24T15:29:15.871Z,36.78
2023-04-24T15:31:44.049Z,44.95
2023-04-24T15:34:12.209Z,49.47
2023-04-24T15:36:40.257Z,44.05
2023-04-24T15:39:09.767Z,36.53
2023-04-24T15:41:41.343Z,41.50
2023-04-24T15:44:09.576Z,39.85
2023-04-24T15:46:37.890Z,46.55
2023-04-24T15:49:06.307Z,48.50
2023-04-24T15:51:34.503Z,43.42
2023-04-24T15:54:02.656Z,51.50
2023-04-24T15:56:31.633Z,60.05
2023-04-24T15:59:01.341Z,49.25
2023-04-24T16:01:29.604Z,61.15
2023-04-24T16:03:57.758Z,52.25
2023-04-24T16:06:28.275Z,54.00
2023-04-24T16:08:58.875Z,52.15
2023-04-24T16:11:28.109Z,51.05
2023-04-24T16:13:56.351Z,64.22
2023-04-24T16:16:25.877Z,45.58
2023-04-24T16:18:54.441Z,55.78
2023-04-24T16:21:22.687Z,53.40
2023-04-24T16:23:50.973Z,52.80
2023-04-24T16:26:19.046Z,46.42
2023-04-24T16:28:47.442Z,42.63
2023-04-24T16:31:15.725Z,42.70
2023-04-24T16:33:45.149Z,46.42
2023-04-24T16:36:13.858Z,42.97
2023-04-24T16:38:42.169Z,50.90
2023-04-24T16:41:10.199Z,43.72
2023-04-24T16:43:38.470Z,38.40
2023-04-24T16:46:06.643Z,41.17
2023-04-24T16:48:35.045Z,50.53
2023-04-24T16:51:04.605Z,53.38
2023-04-24T16:53:32.748Z,47.53
2023-04-24T16:56:00.914Z,44.33
2023-04-24T16:58:28.993Z,65.15
2023-04-24T17:00:57.768Z,49.20
2023-04-24T17:03:26.073Z,57.53
2023-04-24T17:05:54.513Z,64.07
2023-04-24T17:08:23.931Z,54.28
2023-04-24T17:10:51.942Z,54.33
2023-04-24T17:13:20.113Z,50.60
2023-04-24T17:15:48.170Z,38.42
2023-04-24T17:18:17.682Z,47.47
2023-04-24T17:20:46.005Z,44.85
2023-04-24T17:23:14.024Z,58.22
2023-04-24T17:25:43.452Z,45.38
2023-04-24T17:28:24.073Z,40.20
2023-04-24T17:30:54.557Z,43.03
2023-04-24T17:33:22.755Z,40.28
2023-04-24T17:35:51.346Z,43.45
2023-04-24T17:38:19.688Z,44.22
2023-04-24T17:40:52.934Z,43.97
2023-04-24T17:43:21.312Z,46.85
2023-04-24T17:45:50.462Z,45.13
2023-04-24T17:48:20.194Z,46.60
2023-04-24T17:50:48.254Z,53.90
2023-04-24T17:53:20.808Z,57.75
2023-04-24T17:55:50.543Z,55.50
2023-04-24T17:58:20.488Z,53.97
2023-04-24T18:00:48.601Z,47.10
2023-04-24T18:03:16.711Z,43.60
2023-04-24T18:05:44.842Z,52.33
2023-04-24T18:08:13.011Z,51.70
2023-04-24T18:13:11.970Z,46.53
2023-04-24T18:15:42.568Z,51.95
2023-04-24T18:18:11.065Z,50.60
2023-04-24T18:20:39.450Z,57.42
2023-04-24T18:23:07.576Z,50.63
2023-04-24T18:25:35.892Z,57.92
2023-04-24T18:28:04.012Z,61.75
2023-04-24T18:30:34.667Z,58.63
2023-04-24T18:33:02.890Z,76.28
2023-04-24T18:35:31.080Z,61.65
2023-04-24T18:37:59.158Z,59.83
2023-04-24T18:40:27.192Z,71.78
2023-04-24T18:45:42.778Z,64.60
2023-04-24T18:48:10.806Z,68.50
2023-04-24T18:50:40.622Z,81.45
2023-04-24T18:53:12.593Z,78.60
2023-04-24T18:55:40.942Z,84.75
2023-04-24T18:58:08.994Z,67.63
2023-04-24T19:00:38.652Z,78.32
2023-04-24T19:03:08.788Z,70.13
2023-04-24T19:05:37.325Z,63.28
2023-04-24T19:08:05.353Z,63.58
2023-04-24T19:10:34.358Z,73.00
2023-04-24T19:13:02.701Z,70.82
2023-04-24T19:15:30.977Z,82.50
2023-04-24T19:17:59.027Z,70.78
2023-04-24T19:20:28.809Z,70.05
2023-04-24T19:22:57.298Z,68.47
2023-04-24T19:25:25.624Z,69.60
2023-04-24T19:27:53.713Z,68.72
2023-04-24T19:30:21.828Z,67.18
2023-04-24T19:32:49.912Z,61.50
2023-04-24T19:35:18.220Z,70.45
2023-04-24T19:37:47.761Z,61.63
2023-04-24T19:40:15.760Z,81.40
2023-04-24T19:42:44.735Z,68.22
2023-04-24T19:45:13.978Z,63.95
2023-04-24T19:47:42.202Z,74.72
2023-04-24T19:50:10.483Z,71.10
2023-04-24T19:52:38.724Z,64.20
2023-04-24T19:55:09.249Z,76.80
2023-04-24T19:57:42.690Z,56.38
2023-04-24T20:00:18.831Z,78.35
2023-04-24T20:02:56.959Z,67.38
2023-04-24T20:05:25.234Z,72.75
2023-04-24T20:07:53.423Z,62.20
2023-04-24T20:10:22.896Z,69.90
2023-04-24T20:12:51.235Z,58.38
2023-04-24T20:15:19.431Z,65.28
2023-04-24T20:17:47.603Z,64.60
2023-04-24T20:20:15.786Z,57.42
2023-04-24T20:22:43.884Z,56.78
2023-04-24T20:25:13.359Z,53.50
2023-04-24T20:27:42.827Z,59.58
2023-04-24T20:30:13.176Z,50.13
2023-04-24T20:32:42.045Z,63.63
2023-04-24T20:35:11.902Z,59.70
2023-04-24T20:37:40.471Z,62.90
2023-04-24T20:40:09.882Z,60.28
2023-04-24T20:42:38.326Z,70.57
2023-04-24T20:45:09.013Z,64.70
2023-04-24T20:47:37.401Z,58.33
2023-04-24T20:50:06.430Z,49.22
2023-04-24T20:52:34.604Z,56.33
2023-04-24T20:55:03.606Z,43.75
2023-04-24T20:57:32.332Z,59.65
2023-04-24T21:00:00.379Z,64.88
2023-04-24T21:02:31.065Z,62.00
2023-04-24T21:04:59.168Z,65.20
2023-04-24T21:07:27.402Z,54.75
2023-04-24T21:09:55.683Z,70.50
2023-04-24T21:12:23.705Z,63.17
2023-04-24T21:14:51.770Z,51.05
2023-04-24T21:17:20.265Z,58.28
2023-04-24T21:19:49.631Z,53.42
2023-04-24T21:22:17.657Z,55.08
2023-04-24T21:24:46.320Z,63.22
2023-04-24T21:27:14.410Z,54.05
2023-04-24T21:29:43.881Z,59.08
2023-04-24T21:32:15.089Z,54.10
2023-04-24T21:34:43.163Z,58.78
2023-04-24T21:37:13.146Z,53.47
2023-04-24T21:39:41.585Z,62.58
2023-04-24T21:42:09.770Z,46.17
2023-04-24T21:44:37.805Z,53.90
2023-04-24T21:47:06.295Z,53.05
2023-04-24T21:49:34.313Z,52.15
2023-04-24T21:52:02.348Z,47.70
2023-04-24T21:54:32.015Z,57.45
2023-04-24T21:57:01.709Z,44.75
2023-04-24T21:59:30.169Z,49.72
2023-04-24T22:01:58.787Z,54.22
2023-04-24T22:04:27.552Z,50.30
2023-04-24T22:06:56.034Z,59.30
2023-04-24T22:09:24.355Z,50.65
2023-04-24T22:11:53.946Z,41.38
2023-04-24T22:14:21.967Z,57.17
2023-04-24T22:16:50.407Z,60.72
2023-04-24T22:19:18.416Z,60.53
2023-04-24T22:21:46.495Z,70.40
2023-04-24T22:24:14.836Z,52.50
2023-04-24T22:26:42.865Z,56.63
2023-04-24T22:29:12.829Z,53.35
2023-04-24T22:31:41.712Z,52.70
2023-04-24T22:34:10.202Z,65.03
2023-04-24T22:36:38.314Z,68.45
2023-04-24T22:39:06.380Z,62.92
2023-04-24T22:41:34.458Z,51.38
2023-04-24T22:44:02.771Z,59.88
2023-04-24T22:46:32.245Z,56.30
2023-04-24T22:49:00.329Z,62.42
2023-04-24T22:51:29.762Z,54.10
2023-04-24T22:53:57.865Z,59.50
2023-04-24T22:56:26.037Z,55.25
2023-04-24T22:58:54.326Z,62.75
2023-04-24T23:01:22.525Z,57.08
2023-04-24T23:03:52.499Z,52.97
2023-04-24T23:06:21.582Z,61.85
2023-04-24T23:08:49.650Z,53.13
2023-04-24T23:11:18.283Z,51.72
2023-04-24T23:13:46.439Z,68.10
2023-04-24T23:16:14.832Z,67.15
2023-04-24T23:18:43.059Z,67.28
2023-04-24T23:21:12.733Z,59.92
2023-04-24T23:23:41.127Z,69.53
2023-04-24T23:26:09.335Z,69.10
2023-04-24T23:28:38.626Z,70.20
2023-04-24T23:31:06.941Z,61.67
2023-04-24T23:33:35.091Z,63.00
2023-04-24T23:36:03.293Z,68.53
2023-04-24T23:38:43.212Z,63.35
2023-04-24T23:41:19.231Z,61.33
2023-04-24T23:43:47.422Z,78.30
2023-04-24T23:46:15.762Z,74.03
2023-04-24T23:48:43.991Z,79.57
2023-04-24T23:51:12.208Z,71.63
2023-04-24T23:53:42.165Z,88.47
2023-04-24T23:56:10.201Z,77.20
2023-04-24T23:58:38.347Z,84.18
